Terminal Aerodrome Forecast
Issued by NWS

Home | Current Version | Previous Version | Text Only | Print | Product List | Glossary On
Versions: 1 2 3 4 5 6 7 8 9 10 11 12 13 14
483
FTUS44 KEWX 191720
TAFSSF
TAF
KSSF 191720Z 1918/2018 07013KT P6SM FEW060 SCT250
     FM200000 06008KT P6SM BKN100
     FM201500 09013KT P6SM OVC035=

USA.gov is the U.S. government's official web portal to all federal, state and local government web resources and services.